Time;durP1;ratioP1;P1;durP2;ratioP2;P2;SDS_P1;SDS_P2;PMS_P1;PMS_P2;Temp;Humidity;BMP_temperature;BMP_pressure;BME280_temperature;BME280_humidity;BME280_pressure;Samples;Min_cycle;Max_cycle;Signal;HPM_P1;HPM_P2
2023/12/27 00:00:03;;;;;;;;;;;3.40;99.90;;;;;;5089596;27;20407;-80
2023/12/27 00:02:29;;;;;;;;;;;3.40;99.90;;;;;;5099882;27;19931;-82
2023/12/27 00:05:00;;;;;;;;;;;3.70;99.90;;;;;;5096858;27;19980;-82
2023/12/27 00:07:26;;;;;;;;;;;3.30;99.90;;;;;;5079445;27;20452;-81
2023/12/27 00:09:52;;;;;;;;;;;3.20;99.90;;;;;;5098736;27;19926;-81
2023/12/27 00:12:17;;;;;;;;;;;3.10;99.90;;;;;;5104509;27;19963;-82
2023/12/27 00:14:43;;;;;;;;;;;3.10;99.90;;;;;;5083558;27;19938;-79
2023/12/27 00:17:08;;;;;;;;;;;3.00;99.90;;;;;;5099623;27;19927;-82
2023/12/27 00:19:35;;;;;;;;;;;3.00;99.90;;;;;;5097765;27;19976;-83
2023/12/27 00:22:01;;;;;;;;;;;3.00;99.90;;;;;;5076063;27;19927;-82
2023/12/27 00:24:26;;;;;;;;;;;3.00;99.90;;;;;;5089952;27;19931;-80
2023/12/27 00:26:52;;;;;;;;;;;2.90;99.90;;;;;;5101968;27;20007;-83
2023/12/27 00:29:17;;;;;;;;;;;2.90;99.90;;;;;;5099455;27;19924;-82
2023/12/27 00:31:43;;;;;;;;;;;2.80;99.90;;;;;;5104896;27;19970;-79
2023/12/27 00:34:09;;;;;;;;;;;2.70;99.90;;;;;;5089450;27;19999;-78
2023/12/27 00:36:35;;;;;;;;;;;2.70;99.90;;;;;;5101998;27;19928;-82
2023/12/27 00:39:03;;;;;;;;;;;2.60;99.90;;;;;;5101373;27;19963;-82
2023/12/27 00:41:29;;;;;;;;;;;2.60;99.90;;;;;;5090684;27;19933;-83
2023/12/27 00:43:54;;;;;;;;;;;2.60;99.90;;;;;;5081957;27;19924;-81
2023/12/27 00:46:20;;;;;;;;;;;2.50;99.90;;;;;;5106073;27;19950;-83
2023/12/27 00:48:46;;;;;;;;;;;2.50;99.90;;;;;;5086335;27;19970;-82
2023/12/27 00:51:19;;;;;;;;;;;2.30;99.90;;;;;;5086616;27;19931;-82
2023/12/27 00:53:45;;;;;;;;;;;2.50;99.90;;;;;;5109593;27;20014;-82
2023/12/27 00:56:10;;;;;;;;;;;2.40;99.90;;;;;;5091397;27;19930;-83
2023/12/27 00:58:36;;;;;;;;;;;2.40;99.90;;;;;;5100045;27;20003;-82
2023/12/27 01:01:02;;;;;;;;;;;2.40;99.90;;;;;;5089854;27;20385;-81
2023/12/27 01:03:27;;;;;;;;;;;2.40;99.90;;;;;;5103221;27;19931;-82
2023/12/27 01:05:53;;;;;;;;;;;2.30;99.90;;;;;;5092093;27;20025;-82
2023/12/27 01:08:19;;;;;;;;;;;2.30;99.90;;;;;;5090998;27;19930;-80
2023/12/27 01:10:45;;;;;;;;;;;2.30;99.90;;;;;;5102256;27;19984;-81
2023/12/27 01:13:10;;;;;;;;;;;2.50;99.90;;;;;;5089827;27;20430;-81
2023/12/27 01:15:37;;;;;;;;;;;2.20;99.90;;;;;;5104412;27;19927;-79
2023/12/27 01:18:03;;;;;;;;;;;2.60;99.90;;;;;;5094080;27;19931;-81
2023/12/27 01:20:29;;;;;;;;;;;2.20;99.90;;;;;;5099520;27;19932;-82
2023/12/27 01:22:54;;;;;;;;;;;2.90;99.90;;;;;;5089596;27;20393;-79
2023/12/27 01:25:20;;;;;;;;;;;2.20;99.90;;;;;;5082804;27;19980;-82
2023/12/27 01:27:46;;;;;;;;;;;2.30;99.90;;;;;;5104608;27;20374;-83
2023/12/27 01:30:14;;;;;;;;;;;2.10;99.90;;;;;;5083308;27;19942;-80
2023/12/27 01:32:40;;;;;;;;;;;2.10;99.90;;;;;;5105646;27;19931;-81
2023/12/27 01:35:05;;;;;;;;;;;2.10;99.90;;;;;;5103316;27;20255;-82
2023/12/27 01:37:32;;;;;;;;;;;2.10;99.90;;;;;;5101462;27;19927;-82
2023/12/27 01:39:57;;;;;;;;;;;2.10;99.90;;;;;;5104511;27;19931;-80
2023/12/27 01:42:23;;;;;;;;;;;3.60;99.90;;;;;;5094780;27;19931;-83
2023/12/27 01:44:49;;;;;;;;;;;2.10;99.90;;;;;;5106313;27;19942;-81
2023/12/27 01:47:15;;;;;;;;;;;2.10;99.90;;;;;;5101676;27;19983;-82
2023/12/27 01:49:40;;;;;;;;;;;2.00;99.90;;;;;;5100249;27;19938;-81
2023/12/27 01:52:09;;;;;;;;;;;2.30;99.90;;;;;;5121365;27;20018;-82
2023/12/27 01:54:34;;;;;;;;;;;2.00;99.90;;;;;;5103537;27;19955;-81
2023/12/27 01:57:00;;;;;;;;;;;2.20;99.90;;;;;;5102998;27;20021;-81
2023/12/27 01:59:26;;;;;;;;;;;1.90;99.90;;;;;;5070068;27;20423;-80
2023/12/27 02:01:52;;;;;;;;;;;1.90;99.90;;;;;;5103864;27;19936;-80
2023/12/27 02:04:18;;;;;;;;;;;1.80;99.90;;;;;;5091475;27;19927;-79
2023/12/27 02:06:44;;;;;;;;;;;1.80;99.90;;;;;;5102880;27;20008;-79
2023/12/27 02:09:09;;;;;;;;;;;1.80;99.90;;;;;;5119927;27;19934;-79
2023/12/27 02:11:35;;;;;;;;;;;1.70;99.90;;;;;;5106980;27;20375;-81
2023/12/27 02:14:01;;;;;;;;;;;3.20;99.90;;;;;;5100620;27;19950;-81
2023/12/27 02:16:27;;;;;;;;;;;2.70;99.90;;;;;;5077786;27;19976;-82
2023/12/27 02:18:53;;;;;;;;;;;2.60;99.90;;;;;;5103673;27;20309;-82
2023/12/27 02:21:19;;;;;;;;;;;3.40;99.90;;;;;;5107159;27;20489;-79
2023/12/27 02:23:48;;;;;;;;;;;1.60;99.90;;;;;;5095937;27;19931;-82
2023/12/27 02:26:14;;;;;;;;;;;1.60;99.90;;;;;;5095874;27;20061;-80
2023/12/27 02:28:39;;;;;;;;;;;1.60;99.90;;;;;;5090586;27;19927;-82
2023/12/27 02:31:05;;;;;;;;;;;2.50;99.90;;;;;;5089825;27;19931;-83
2023/12/27 02:33:30;;;;;;;;;;;1.60;99.90;;;;;;5106192;27;19931;-79
2023/12/27 02:35:56;;;;;;;;;;;1.70;99.90;;;;;;5094828;27;19923;-82
2023/12/27 02:38:22;;;;;;;;;;;2.00;99.90;;;;;;5085848;27;20343;-83
2023/12/27 02:40:47;;;;;;;;;;;1.70;99.90;;;;;;5105117;27;19927;-82
2023/12/27 02:43:13;;;;;;;;;;;1.70;99.90;;;;;;5071782;27;19980;-80
2023/12/27 02:45:38;;;;;;;;;;;1.70;99.90;;;;;;5071640;27;19933;-79
2023/12/27 02:48:07;;;;;;;;;;;1.70;99.90;;;;;;5121448;27;19927;-79
2023/12/27 02:50:33;;;;;;;;;;;1.70;99.90;;;;;;5076725;27;19950;-82
2023/12/27 02:52:58;;;;;;;;;;;1.70;99.90;;;;;;5088412;27;20041;-82
2023/12/27 02:55:24;;;;;;;;;;;1.70;99.90;;;;;;5106213;27;19979;-81
2023/12/27 02:57:49;;;;;;;;;;;1.50;99.90;;;;;;5090429;27;19927;-81
2023/12/27 03:00:15;;;;;;;;;;;2.20;99.90;;;;;;5090403;27;21452;-82
2023/12/27 03:02:41;;;;;;;;;;;1.70;99.90;;;;;;5087328;27;19931;-83
2023/12/27 03:05:06;;;;;;;;;;;1.70;99.90;;;;;;5104401;27;20071;-79
2023/12/27 03:07:32;;;;;;;;;;;1.70;99.90;;;;;;5104848;27;20129;-83
2023/12/27 03:09:58;;;;;;;;;;;1.80;99.90;;;;;;5101875;27;20416;-82
2023/12/27 03:12:23;;;;;;;;;;;1.70;99.90;;;;;;5100142;27;20012;-83
2023/12/27 03:14:50;;;;;;;;;;;1.70;99.90;;;;;;5087592;27;19927;-83
2023/12/27 03:17:16;;;;;;;;;;;1.70;99.90;;;;;;5101488;27;19952;-80
2023/12/27 03:19:41;;;;;;;;;;;1.70;99.90;;;;;;5085351;27;19935;-84
2023/12/27 03:22:07;;;;;;;;;;;1.80;99.90;;;;;;5091188;27;20372;-78
2023/12/27 03:24:32;;;;;;;;;;;1.80;99.90;;;;;;5100234;27;20460;-81
2023/12/27 03:26:58;;;;;;;;;;;1.80;99.90;;;;;;5101392;27;20171;-82
2023/12/27 03:29:24;;;;;;;;;;;1.80;99.90;;;;;;5082565;27;19931;-82
2023/12/27 03:31:49;;;;;;;;;;;1.80;99.90;;;;;;5092368;27;19924;-84
2023/12/27 03:34:15;;;;;;;;;;;1.90;99.90;;;;;;5102820;27;19950;-83
2023/12/27 03:36:41;;;;;;;;;;;1.90;99.90;;;;;;5091458;27;20061;-81
2023/12/27 03:39:06;;;;;;;;;;;1.00;99.90;;;;;;5091106;27;19938;-82
2023/12/27 03:41:32;;;;;;;;;;;1.90;99.90;;;;;;5074902;27;20479;-79
2023/12/27 03:43:59;;;;;;;;;;;1.90;99.90;;;;;;5099273;27;20270;-83
2023/12/27 03:46:25;;;;;;;;;;;3.30;99.90;;;;;;5107466;27;20013;-82
2023/12/27 03:48:51;;;;;;;;;;;2.00;99.90;;;;;;5085392;27;20011;-80
2023/12/27 03:51:18;;;;;;;;;;;2.00;99.90;;;;;;5109254;27;20318;-81
2023/12/27 03:53:44;;;;;;;;;;;2.00;99.90;;;;;;5104979;27;19927;-82
2023/12/27 03:56:13;;;;;;;;;;;2.10;99.90;;;;;;5107526;27;19938;-80
2023/12/27 03:58:41;;;;;;;;;;;2.10;99.90;;;;;;5102006;27;19976;-82
2023/12/27 04:01:07;;;;;;;;;;;2.10;99.90;;;;;;5093095;27;20010;-79
2023/12/27 04:03:33;;;;;;;;;;;2.10;99.90;;;;;;5096176;27;19934;-81
2023/12/27 04:05:58;;;;;;;;;;;2.40;99.90;;;;;;5090980;27;19927;-78
2023/12/27 04:08:24;;;;;;;;;;;2.10;99.90;;;;;;5101741;27;19931;-81
2023/12/27 04:10:50;;;;;;;;;;;2.10;99.90;;;;;;5105336;27;19934;-83
2023/12/27 04:13:15;;;;;;;;;;;2.10;99.90;;;;;;5105959;27;20091;-82
2023/12/27 04:15:47;;;;;;;;;;;2.10;99.90;;;;;;5108229;27;19935;-82
2023/12/27 04:18:12;;;;;;;;;;;2.20;99.90;;;;;;5106221;27;20367;-81
2023/12/27 04:20:38;;;;;;;;;;;3.20;99.90;;;;;;5082858;27;19931;-81
2023/12/27 04:23:04;;;;;;;;;;;2.40;99.90;;;;;;5076700;27;19931;-78
2023/12/27 04:25:29;;;;;;;;;;;2.20;99.90;;;;;;5091546;27;19927;-81
2023/12/27 04:27:55;;;;;;;;;;;3.10;99.90;;;;;;5089600;27;19954;-82
2023/12/27 04:30:20;;;;;;;;;;;2.20;99.90;;;;;;5101240;27;19934;-81
2023/12/27 04:32:46;;;;;;;;;;;2.20;99.90;;;;;;5099935;27;20312;-82
2023/12/27 04:35:12;;;;;;;;;;;2.20;99.90;;;;;;5105592;27;19984;-79
2023/12/27 04:37:38;;;;;;;;;;;2.30;99.90;;;;;;5098100;27;19923;-80
2023/12/27 04:40:04;;;;;;;;;;;2.40;99.90;;;;;;5107836;27;19926;-79
2023/12/27 04:42:29;;;;;;;;;;;2.30;99.90;;;;;;5111429;27;20042;-81
2023/12/27 04:44:55;;;;;;;;;;;2.30;99.90;;;;;;5088453;27;19938;-80
2023/12/27 04:47:21;;;;;;;;;;;2.70;99.90;;;;;;5089708;27;20343;-83
2023/12/27 04:49:46;;;;;;;;;;;2.30;99.90;;;;;;5074673;27;20762;-81
2023/12/27 04:52:14;;;;;;;;;;;2.40;99.90;;;;;;5103979;27;19927;-82
2023/12/27 04:54:40;;;;;;;;;;;2.40;99.90;;;;;;5083571;27;19931;-79
2023/12/27 04:57:05;;;;;;;;;;;2.40;99.90;;;;;;5106426;27;20706;-82
2023/12/27 04:59:31;;;;;;;;;;;3.30;99.90;;;;;;5093393;27;19954;-81
2023/12/27 05:01:57;;;;;;;;;;;2.50;99.90;;;;;;5070166;27;19938;-80
2023/12/27 05:04:28;;;;;;;;;;;2.50;99.90;;;;;;5074576;27;20362;-83
2023/12/27 05:06:54;;;;;;;;;;;2.50;99.90;;;;;;5102428;27;19924;-82
2023/12/27 05:09:19;;;;;;;;;;;2.60;99.90;;;;;;5088518;27;19938;-82
2023/12/27 05:11:45;;;;;;;;;;;2.60;99.90;;;;;;5106921;27;19923;-79
2023/12/27 05:14:11;;;;;;;;;;;2.90;99.90;;;;;;5090431;27;19935;-83
2023/12/27 05:16:38;;;;;;;;;;;2.80;99.90;;;;;;5092544;27;19931;-81
2023/12/27 05:19:03;;;;;;;;;;;2.70;99.90;;;;;;5096981;27;19928;-82
2023/12/27 05:21:29;;;;;;;;;;;3.00;99.90;;;;;;5087037;27;20392;-83
2023/12/27 05:23:55;;;;;;;;;;;2.70;99.90;;;;;;5108677;27;19926;-79
2023/12/27 05:26:20;;;;;;;;;;;2.70;99.90;;;;;;5098354;27;19924;-81
2023/12/27 05:28:46;;;;;;;;;;;3.10;99.90;;;;;;5085656;27;19927;-82
2023/12/27 05:31:11;;;;;;;;;;;2.80;99.90;;;;;;5101026;27;19927;-83
2023/12/27 05:33:37;;;;;;;;;;;2.90;99.90;;;;;;5091563;27;19935;-79
2023/12/27 05:36:03;;;;;;;;;;;2.90;99.90;;;;;;5092571;27;19931;-79
2023/12/27 05:38:29;;;;;;;;;;;2.90;99.90;;;;;;5088499;27;20302;-81
2023/12/27 05:40:54;;;;;;;;;;;2.90;99.90;;;;;;5073348;27;20393;-81
2023/12/27 05:43:20;;;;;;;;;;;2.90;99.90;;;;;;5089385;27;19971;-79
2023/12/27 05:45:45;;;;;;;;;;;3.00;99.90;;;;;;5093346;27;19950;-80
2023/12/27 05:48:12;;;;;;;;;;;3.10;99.90;;;;;;5088599;27;20416;-82
2023/12/27 05:50:37;;;;;;;;;;;3.00;99.90;;;;;;5102336;27;19923;-78
2023/12/27 05:53:03;;;;;;;;;;;3.20;99.90;;;;;;5100910;27;20584;-80
2023/12/27 05:55:29;;;;;;;;;;;3.30;99.90;;;;;;5121322;27;19942;-80
2023/12/27 05:57:54;;;;;;;;;;;3.10;99.90;;;;;;5087446;27;19938;-83
2023/12/27 06:00:20;;;;;;;;;;;3.10;99.90;;;;;;5113823;27;19948;-82
2023/12/27 06:02:46;;;;;;;;;;;3.10;99.90;;;;;;5105651;27;19958;-80
2023/12/27 06:05:11;;;;;;;;;;;3.10;99.90;;;;;;5095047;27;19952;-85
2023/12/27 06:07:38;;;;;;;;;;;3.20;99.90;;;;;;5094712;27;20762;-80
2023/12/27 06:10:07;;;;;;;;;;;3.20;99.90;;;;;;5089738;27;20417;-83
2023/12/27 06:12:33;;;;;;;;;;;3.20;99.90;;;;;;5094306;27;20378;-84
2023/12/27 06:14:59;;;;;;;;;;;3.30;99.90;;;;;;5101889;27;19945;-81
2023/12/27 06:17:25;;;;;;;;;;;3.30;99.90;;;;;;5093695;27;20034;-81
2023/12/27 06:19:50;;;;;;;;;;;2.70;99.90;;;;;;5083840;27;20416;-85
2023/12/27 06:22:16;;;;;;;;;;;3.40;99.90;;;;;;5104236;27;19927;-84
2023/12/27 06:24:41;;;;;;;;;;;3.40;99.90;;;;;;5095096;27;19930;-84
2023/12/27 06:27:07;;;;;;;;;;;3.50;99.90;;;;;;5076108;27;19927;-79
2023/12/27 06:29:33;;;;;;;;;;;3.50;99.90;;;;;;5099210;27;20385;-84
2023/12/27 06:32:03;;;;;;;;;;;3.50;99.90;;;;;;5105444;27;20058;-85
2023/12/27 06:34:28;;;;;;;;;;;3.60;99.90;;;;;;5076862;27;19963;-86
2023/12/27 06:36:54;;;;;;;;;;;4.10;99.90;;;;;;5101794;27;20004;-82
2023/12/27 06:39:19;;;;;;;;;;;3.60;99.90;;;;;;5101817;27;20447;-82
2023/12/27 06:41:45;;;;;;;;;;;3.60;99.90;;;;;;5099378;27;20014;-81
2023/12/27 06:44:11;;;;;;;;;;;3.70;99.90;;;;;;5107903;27;19937;-83
2023/12/27 06:46:36;;;;;;;;;;;3.70;99.90;;;;;;5103959;27;20393;-83
2023/12/27 06:49:02;;;;;;;;;;;3.70;99.90;;;;;;5103292;27;19927;-84
2023/12/27 06:51:28;;;;;;;;;;;3.70;99.90;;;;;;5095237;27;20016;-85
2023/12/27 06:53:54;;;;;;;;;;;3.70;99.90;;;;;;5098373;27;19935;-82
2023/12/27 06:56:19;;;;;;;;;;;3.70;99.90;;;;;;5096714;27;19931;-79
2023/12/27 06:58:45;;;;;;;;;;;3.80;99.90;;;;;;5095756;27;20120;-83
2023/12/27 07:01:11;;;;;;;;;;;3.80;99.90;;;;;;5089186;27;19928;-84
2023/12/27 07:03:37;;;;;;;;;;;3.80;99.90;;;;;;5097522;27;20381;-79
2023/12/27 07:06:03;;;;;;;;;;;3.80;99.90;;;;;;5090701;27;20042;-84
2023/12/27 07:08:30;;;;;;;;;;;3.80;99.90;;;;;;5090075;27;19923;-84
2023/12/27 07:10:58;;;;;;;;;;;4.40;99.90;;;;;;5097905;27;20400;-81
2023/12/27 07:13:24;;;;;;;;;;;3.90;99.90;;;;;;5081041;27;19931;-84
2023/12/27 07:15:53;;;;;;;;;;;3.80;99.90;;;;;;5089702;27;22856;-84
2023/12/27 07:18:20;;;;;;;;;;;4.20;99.90;;;;;;5083501;27;19927;-83
2023/12/27 07:20:46;;;;;;;;;;;3.90;99.90;;;;;;5127239;27;19938;-80
2023/12/27 07:23:12;;;;;;;;;;;4.20;99.90;;;;;;5098178;27;19931;-84
2023/12/27 07:25:37;;;;;;;;;;;3.90;99.90;;;;;;5112991;27;19923;-80
2023/12/27 07:28:07;;;;;;;;;;;3.90;99.90;;;;;;5133323;27;20126;-82
2023/12/27 07:30:33;;;;;;;;;;;3.90;99.90;;;;;;5136886;27;19987;-83
2023/12/27 07:32:58;;;;;;;;;;;3.90;99.90;;;;;;5116423;27;19931;-83
2023/12/27 07:35:24;;;;;;;;;;;3.90;99.90;;;;;;5116775;27;19934;-85
2023/12/27 07:37:50;;;;;;;;;;;3.90;99.90;;;;;;5090770;27;19931;-82
2023/12/27 07:40:21;;;;;;;;;;;4.10;99.90;;;;;;5107146;27;20016;-81
2023/12/27 07:42:48;;;;;;;;;;;3.90;99.90;;;;;;5102101;27;19923;-83
2023/12/27 07:45:14;;;;;;;;;;;3.90;99.90;;;;;;5116121;27;19924;-79
2023/12/27 07:47:39;;;;;;;;;;;4.00;99.90;;;;;;5114268;27;20898;-84
2023/12/27 07:50:05;;;;;;;;;;;3.90;99.90;;;;;;5110016;27;20458;-82
2023/12/27 07:52:32;;;;;;;;;;;4.00;99.90;;;;;;5102020;27;19938;-84
2023/12/27 07:54:58;;;;;;;;;;;4.00;99.90;;;;;;5100430;27;20308;-84
2023/12/27 07:57:23;;;;;;;;;;;4.00;99.90;;;;;;5113628;27;19950;-83
2023/12/27 07:59:55;;;;;;;;;;;4.00;99.90;;;;;;5103444;27;20386;-81
2023/12/27 08:02:20;;;;;;;;;;;4.00;99.90;;;;;;5101200;27;19927;-84
2023/12/27 08:04:46;;;;;;;;;;;4.50;99.90;;;;;;5117339;27;20245;-85
2023/12/27 08:07:15;;;;;;;;;;;4.00;99.90;;;;;;5126271;27;20017;-81
2023/12/27 08:09:40;;;;;;;;;;;4.10;99.90;;;;;;5110329;27;19981;-83
2023/12/27 08:12:09;;;;;;;;;;;4.10;99.90;;;;;;5112573;27;19924;-82
2023/12/27 08:14:36;;;;;;;;;;;4.00;99.90;;;;;;5104063;27;19927;-84
2023/12/27 08:17:02;;;;;;;;;;;4.10;99.90;;;;;;5108652;27;19928;-84
2023/12/27 08:19:27;;;;;;;;;;;4.50;99.90;;;;;;5081036;27;19943;-81
2023/12/27 08:21:53;;;;;;;;;;;4.10;99.90;;;;;;5090082;27;19927;-84
2023/12/27 08:24:18;;;;;;;;;;;4.20;99.90;;;;;;5099670;27;19930;-80
2023/12/27 08:26:44;;;;;;;;;;;4.10;99.90;;;;;;5106509;27;20481;-83
2023/12/27 08:29:10;;;;;;;;;;;4.10;99.90;;;;;;5094581;27;19927;-81
2023/12/27 08:31:35;;;;;;;;;;;4.20;99.90;;;;;;5115133;27;20805;-81
2023/12/27 08:34:02;;;;;;;;;;;4.20;99.90;;;;;;5130403;27;19928;-82
2023/12/27 08:36:29;;;;;;;;;;;4.20;99.90;;;;;;5108902;27;19928;-81
2023/12/27 08:38:55;;;;;;;;;;;4.20;99.90;;;;;;5086398;27;19923;-85
2023/12/27 08:41:24;;;;;;;;;;;4.20;99.90;;;;;;5102910;27;19934;-82
2023/12/27 08:43:51;;;;;;;;;;;4.30;99.90;;;;;;5109488;27;20022;-84
2023/12/27 08:46:17;;;;;;;;;;;4.20;99.90;;;;;;5111436;27;20366;-80
2023/12/27 08:48:46;;;;;;;;;;;4.20;99.90;;;;;;5130112;27;20043;-81
2023/12/27 08:51:12;;;;;;;;;;;4.30;99.90;;;;;;5094803;27;19978;-84
2023/12/27 08:53:39;;;;;;;;;;;4.30;99.90;;;;;;5096366;27;19923;-84
2023/12/27 08:56:05;;;;;;;;;;;4.30;99.90;;;;;;5108221;27;20016;-79
2023/12/27 08:58:30;;;;;;;;;;;4.30;99.90;;;;;;5129487;27;19981;-83
2023/12/27 09:00:58;;;;;;;;;;;4.30;99.90;;;;;;5109491;27;19927;-83
2023/12/27 09:03:25;;;;;;;;;;;4.40;99.90;;;;;;5119874;27;19927;-80
2023/12/27 09:05:51;;;;;;;;;;;4.40;99.90;;;;;;5106438;27;19927;-85
2023/12/27 09:08:16;;;;;;;;;;;4.40;99.90;;;;;;5116383;27;20000;-83
2023/12/27 09:10:42;;;;;;;;;;;4.80;99.90;;;;;;5120018;27;20377;-83
2023/12/27 09:13:09;;;;;;;;;;;4.40;99.90;;;;;;5122024;27;19927;-85
2023/12/27 09:15:34;;;;;;;;;;;4.40;99.90;;;;;;5116379;27;19962;-86
2023/12/27 09:18:00;;;;;;;;;;;4.40;99.90;;;;;;5107924;27;19965;-85
2023/12/27 09:20:26;;;;;;;;;;;4.40;99.90;;;;;;5095225;27;19927;-84
2023/12/27 09:22:51;;;;;;;;;;;4.40;99.90;;;;;;5112612;27;20038;-84
2023/12/27 09:25:17;;;;;;;;;;;4.40;99.90;;;;;;5119106;27;19927;-86
2023/12/27 09:27:44;;;;;;;;;;;4.50;99.90;;;;;;5102737;27;19963;-81
2023/12/27 09:30:10;;;;;;;;;;;4.50;99.90;;;;;;5121892;27;19923;-86
2023/12/27 09:32:37;;;;;;;;;;;4.50;99.90;;;;;;5102269;27;20427;-86
2023/12/27 09:35:02;;;;;;;;;;;4.50;99.90;;;;;;5111971;27;19940;-84
2023/12/27 09:37:29;;;;;;;;;;;4.50;99.90;;;;;;5095502;27;19935;-84
2023/12/27 09:39:54;;;;;;;;;;;4.60;99.90;;;;;;5113630;27;20012;-82
2023/12/27 09:42:20;;;;;;;;;;;4.50;99.90;;;;;;5092547;27;20498;-83
2023/12/27 09:44:48;;;;;;;;;;;4.60;99.90;;;;;;5110406;27;19934;-82
2023/12/27 09:47:15;;;;;;;;;;;4.60;99.90;;;;;;5110546;27;19927;-80
2023/12/27 09:49:40;;;;;;;;;;;4.60;99.90;;;;;;5097383;27;19974;-80
2023/12/27 09:52:07;;;;;;;;;;;4.70;99.90;;;;;;5114454;27;20289;-84
2023/12/27 09:54:33;;;;;;;;;;;4.70;99.90;;;;;;5117572;27;19931;-87
2023/12/27 09:56:59;;;;;;;;;;;4.70;99.90;;;;;;5099087;27;19927;-80
2023/12/27 09:59:27;;;;;;;;;;;5.50;99.90;;;;;;5096881;27;20040;-79
2023/12/27 10:01:57;;;;;;;;;;;4.80;99.90;;;;;;5109523;27;19923;-80
2023/12/27 10:04:42;;;;;;;;;;;4.80;99.90;;;;;;5103898;27;19931;-83
2023/12/27 10:07:08;;;;;;;;;;;4.80;99.90;;;;;;5106778;27;19928;-80
2023/12/27 10:09:34;;;;;;;;;;;4.90;99.90;;;;;;5094249;27;19931;-87
2023/12/27 10:11:59;;;;;;;;;;;4.90;99.90;;;;;;5114008;27;19944;-87
2023/12/27 10:14:26;;;;;;;;;;;4.90;99.90;;;;;;5100084;27;20018;-83
2023/12/27 10:16:51;;;;;;;;;;;4.90;99.90;;;;;;5104485;27;19954;-81
2023/12/27 10:19:36;;;;;;;;;;;4.90;99.90;;;;;;5111149;27;20404;-79
2023/12/27 10:22:02;;;;;;;;;;;4.90;99.90;;;;;;5118157;27;19931;-80
2023/12/27 10:24:27;;;;;;;;;;;4.90;99.90;;;;;;5112026;27;19923;-82
2023/12/27 10:26:57;;;;;;;;;;;5.00;99.90;;;;;;5096045;27;20274;-88
2023/12/27 10:29:23;;;;;;;;;;;5.00;99.90;;;;;;5119694;27;19927;-84
2023/12/27 10:31:49;;;;;;;;;;;5.00;99.90;;;;;;5103028;27;19965;-87
2023/12/27 10:34:15;;;;;;;;;;;5.00;99.90;;;;;;5117577;27;19924;-85
2023/12/27 10:36:42;;;;;;;;;;;5.00;99.90;;;;;;5112474;27;20477;-85
2023/12/27 10:39:09;;;;;;;;;;;5.00;99.90;;;;;;5111435;27;19980;-85
2023/12/27 10:41:34;;;;;;;;;;;5.10;99.90;;;;;;5099263;27;19991;-87
2023/12/27 10:44:03;;;;;;;;;;;5.10;99.90;;;;;;5090522;27;20365;-83
2023/12/27 10:46:29;;;;;;;;;;;5.10;99.90;;;;;;5092812;27;19919;-87
2023/12/27 10:48:56;;;;;;;;;;;5.10;99.90;;;;;;5096902;27;19929;-83
2023/12/27 10:51:23;;;;;;;;;;;5.10;99.90;;;;;;5110058;27;19969;-81
2023/12/27 10:53:49;;;;;;;;;;;5.10;99.90;;;;;;5113359;27;20024;-85
2023/12/27 10:56:18;;;;;;;;;;;5.10;99.90;;;;;;5107827;27;19967;-82
2023/12/27 10:58:45;;;;;;;;;;;5.10;99.90;;;;;;5112229;27;20003;-87
2023/12/27 11:01:12;;;;;;;;;;;5.20;99.90;;;;;;5109254;27;19927;-82
2023/12/27 11:03:38;;;;;;;;;;;5.20;99.90;;;;;;5108649;27;19931;-81
2023/12/27 11:06:05;;;;;;;;;;;5.10;99.90;;;;;;5091646;27;19934;-86
2023/12/27 11:08:32;;;;;;;;;;;5.20;99.90;;;;;;5111569;27;20252;-85
2023/12/27 11:10:59;;;;;;;;;;;5.20;99.90;;;;;;5100288;27;19978;-87
2023/12/27 11:13:26;;;;;;;;;;;5.20;99.90;;;;;;5102779;27;19948;-87
2023/12/27 11:15:53;;;;;;;;;;;5.20;99.90;;;;;;5117724;27;19931;-83
2023/12/27 11:18:21;;;;;;;;;;;5.20;99.90;;;;;;5088784;27;20048;-86
2023/12/27 11:20:49;;;;;;;;;;;5.20;99.90;;;;;;5110059;27;19948;-84
2023/12/27 11:23:15;;;;;;;;;;;5.30;99.90;;;;;;5097931;27;19923;-86
2023/12/27 11:25:41;;;;;;;;;;;5.30;99.90;;;;;;5113647;27;21006;-84
2023/12/27 11:28:07;;;;;;;;;;;5.30;99.90;;;;;;5114588;27;20146;-80
2023/12/27 11:30:33;;;;;;;;;;;5.30;99.90;;;;;;5091797;27;19935;-83
2023/12/27 11:32:59;;;;;;;;;;;5.40;99.90;;;;;;5048800;27;1847705;-83
2023/12/27 11:35:27;;;;;;;;;;;5.40;99.90;;;;;;5108505;27;19942;-86
2023/12/27 11:38:11;;;;;;;;;;;5.40;99.90;;;;;;5100536;27;20365;-83
2023/12/27 11:40:39;;;;;;;;;;;5.50;99.90;;;;;;5100976;27;20545;-82
2023/12/27 11:43:04;;;;;;;;;;;5.50;99.90;;;;;;5095091;27;19927;-85
2023/12/27 11:45:55;;;;;;;;;;;5.50;99.90;;;;;;5089870;27;19932;-82
2023/12/27 11:48:21;;;;;;;;;;;5.50;99.90;;;;;;5114125;27;20706;-86
2023/12/27 11:50:46;;;;;;;;;;;5.60;99.90;;;;;;5115029;27;20025;-87
2023/12/27 11:53:13;;;;;;;;;;;5.50;99.90;;;;;;5089899;27;20039;-79
2023/12/27 11:55:40;;;;;;;;;;;5.60;99.90;;;;;;5098799;27;20680;-80
2023/12/27 11:58:08;;;;;;;;;;;5.70;99.90;;;;;;5096985;27;19927;-81
2023/12/27 12:00:34;;;;;;;;;;;5.10;99.90;;;;;;5106134;27;19934;-83
2023/12/27 12:03:00;;;;;;;;;;;5.70;99.90;;;;;;5113566;27;19928;-84
2023/12/27 12:05:48;;;;;;;;;;;5.70;99.90;;;;;;5115260;27;19934;-84
2023/12/27 12:08:26;;;;;;;;;;;5.70;99.90;;;;;;5114009;27;19924;-84
2023/12/27 12:11:03;;;;;;;;;;;5.70;99.90;;;;;;5114956;27;20608;-85
2023/12/27 12:13:29;;;;;;;;;;;5.80;99.90;;;;;;5111755;27;19931;-82
2023/12/27 12:15:55;;;;;;;;;;;5.80;99.90;;;;;;5116071;27;19923;-83
2023/12/27 12:18:21;;;;;;;;;;;5.80;99.90;;;;;;5111021;27;19927;-83
2023/12/27 12:20:49;;;;;;;;;;;6.60;99.90;;;;;;5081260;27;19923;-83
2023/12/27 12:23:14;;;;;;;;;;;5.90;99.90;;;;;;5122336;27;19930;-86
2023/12/27 12:25:42;;;;;;;;;;;5.90;99.90;;;;;;5112184;27;20463;-87
2023/12/27 12:28:08;;;;;;;;;;;6.00;99.90;;;;;;5088259;27;19923;-85
2023/12/27 12:30:35;;;;;;;;;;;6.00;99.90;;;;;;5100124;27;19927;-85
2023/12/27 12:33:01;;;;;;;;;;;6.00;99.90;;;;;;5106406;27;19946;-82
2023/12/27 12:35:27;;;;;;;;;;;6.00;99.90;;;;;;5132095;27;19936;-85
2023/12/27 12:37:52;;;;;;;;;;;6.10;99.90;;;;;;5082177;27;19927;-82
2023/12/27 12:40:18;;;;;;;;;;;6.10;99.90;;;;;;5114057;27;19927;-84
2023/12/27 12:42:44;;;;;;;;;;;6.10;99.90;;;;;;5130073;27;20346;-82
2023/12/27 12:45:10;;;;;;;;;;;6.20;99.90;;;;;;5111617;27;20408;-85
2023/12/27 12:47:36;;;;;;;;;;;6.20;99.90;;;;;;5116492;27;20022;-81
2023/12/27 12:50:01;;;;;;;;;;;6.30;99.90;;;;;;5106898;27;19931;-84
2023/12/27 12:52:27;;;;;;;;;;;6.30;99.90;;;;;;5094150;27;19939;-86
2023/12/27 12:54:53;;;;;;;;;;;6.30;99.90;;;;;;5116331;27;19923;-86
2023/12/27 12:57:20;;;;;;;;;;;6.30;99.90;;;;;;5119167;27;19927;-81
2023/12/27 12:59:48;;;;;;;;;;;6.40;99.90;;;;;;5080928;27;19975;-84
2023/12/27 13:02:14;;;;;;;;;;;6.40;99.90;;;;;;5097954;27;19974;-83
2023/12/27 13:04:40;;;;;;;;;;;6.40;99.90;;;;;;5116560;27;20290;-81
2023/12/27 13:07:07;;;;;;;;;;;6.50;99.90;;;;;;5102769;27;20005;-84
2023/12/27 13:09:53;;;;;;;;;;;6.50;99.90;;;;;;5107924;27;19927;-84
2023/12/27 13:12:19;;;;;;;;;;;6.50;99.90;;;;;;5104688;27;20634;-86
2023/12/27 13:14:44;;;;;;;;;;;6.60;99.90;;;;;;5093674;27;19938;-82
2023/12/27 13:17:10;;;;;;;;;;;6.60;99.90;;;;;;5081145;27;19934;-86
2023/12/27 13:19:37;;;;;;;;;;;6.60;99.90;;;;;;5105411;27;19981;-86
2023/12/27 13:22:03;;;;;;;;;;;7.10;99.90;;;;;;5110566;27;20113;-85
2023/12/27 13:24:29;;;;;;;;;;;6.70;99.90;;;;;;5098466;27;20566;-80
2023/12/27 13:26:54;;;;;;;;;;;6.70;99.90;;;;;;5106519;27;20319;-84
2023/12/27 13:29:20;;;;;;;;;;;6.70;99.90;;;;;;5093923;27;19992;-83
2023/12/27 13:31:46;;;;;;;;;;;6.80;99.90;;;;;;5107978;27;19938;-84
2023/12/27 13:34:11;;;;;;;;;;;6.70;99.90;;;;;;5107370;27;19931;-84
2023/12/27 13:36:37;;;;;;;;;;;6.80;99.90;;;;;;5115780;27;19930;-81
2023/12/27 13:39:02;;;;;;;;;;;6.80;99.90;;;;;;5104045;27;19927;-85
2023/12/27 13:41:28;;;;;;;;;;;6.80;99.90;;;;;;5096563;27;19923;-84
2023/12/27 13:43:54;;;;;;;;;;;6.80;99.90;;;;;;5099112;27;19931;-85
2023/12/27 13:46:19;;;;;;;;;;;6.90;99.90;;;;;;5110110;27;19928;-83
2023/12/27 13:48:45;;;;;;;;;;;6.90;99.90;;;;;;5089436;27;19931;-86
2023/12/27 13:51:11;;;;;;;;;;;6.90;99.90;;;;;;5111528;27;19977;-81
2023/12/27 13:53:36;;;;;;;;;;;7.00;99.90;;;;;;5101261;27;19927;-82
2023/12/27 13:56:02;;;;;;;;;;;7.00;99.90;;;;;;5108427;27;19927;-83
2023/12/27 13:58:29;;;;;;;;;;;7.00;99.90;;;;;;5092410;27;20382;-85
2023/12/27 14:00:54;;;;;;;;;;;7.10;99.90;;;;;;5104593;27;19980;-86
2023/12/27 14:03:20;;;;;;;;;;;7.10;99.90;;;;;;5106820;27;19924;-84
2023/12/27 14:05:46;;;;;;;;;;;7.10;99.90;;;;;;5102115;27;20004;-84
2023/12/27 14:08:11;;;;;;;;;;;6.80;99.90;;;;;;5110650;27;20368;-84
2023/12/27 14:10:37;;;;;;;;;;;7.20;99.90;;;;;;5106235;27;19960;-82
2023/12/27 14:13:03;;;;;;;;;;;7.20;99.90;;;;;;5100790;27;19926;-84
2023/12/27 14:15:28;;;;;;;;;;;7.20;99.90;;;;;;5085044;27;19927;-86
2023/12/27 14:17:54;;;;;;;;;;;7.30;99.90;;;;;;5086984;27;20018;-84
2023/12/27 14:20:19;;;;;;;;;;;7.30;99.90;;;;;;5114442;27;19927;-86
2023/12/27 14:22:46;;;;;;;;;;;7.30;99.90;;;;;;5109817;27;19931;-85
2023/12/27 14:25:11;;;;;;;;;;;7.40;99.90;;;;;;5104930;27;19932;-82